sensor_id;sensor_type;location;lat;lon;timestamp;P1;durP1;ratioP1;P2;durP2;ratioP2
2404;SDS011;1213;43.206;27.922;2023-10-19T00:01:20;6.50;;;4.83;;
2404;SDS011;1213;43.206;27.922;2023-10-19T00:03:49;2.80;;;2.37;;
2404;SDS011;1213;43.206;27.922;2023-10-19T00:06:15;12.00;;;5.60;;
2404;SDS011;1213;43.206;27.922;2023-10-19T00:08:40;16.17;;;5.67;;
2404;SDS011;1213;43.206;27.922;2023-10-19T00:11:08;6.30;;;5.40;;
2404;SDS011;1213;43.206;27.922;2023-10-19T00:13:47;10.30;;;4.37;;
2404;SDS011;1213;43.206;27.922;2023-10-19T00:16:15;8.40;;;4.17;;
2404;SDS011;1213;43.206;27.922;2023-10-19T00:18:47;9.80;;;6.10;;
2404;SDS011;1213;43.206;27.922;2023-10-19T00:21:13;10.40;;;5.00;;
2404;SDS011;1213;43.206;27.922;2023-10-19T00:23:55;9.30;;;5.93;;
2404;SDS011;1213;43.206;27.922;2023-10-19T00:26:22;9.23;;;5.60;;
2404;SDS011;1213;43.206;27.922;2023-10-19T00:28:50;4.60;;;3.80;;
2404;SDS011;1213;43.206;27.922;2023-10-19T00:31:18;10.57;;;5.73;;
2404;SDS011;1213;43.206;27.922;2023-10-19T00:33:45;9.27;;;6.20;;
2404;SDS011;1213;43.206;27.922;2023-10-19T00:36:10;11.10;;;5.83;;
2404;SDS011;1213;43.206;27.922;2023-10-19T00:38:39;12.30;;;6.00;;
2404;SDS011;1213;43.206;27.922;2023-10-19T00:41:05;16.00;;;6.50;;
2404;SDS011;1213;43.206;27.922;2023-10-19T00:43:37;11.90;;;6.10;;
2404;SDS011;1213;43.206;27.922;2023-10-19T00:46:23;5.10;;;4.60;;
2404;SDS011;1213;43.206;27.922;2023-10-19T00:48:57;9.73;;;5.83;;
2404;SDS011;1213;43.206;27.922;2023-10-19T00:51:56;7.60;;;5.37;;
2404;SDS011;1213;43.206;27.922;2023-10-19T00:54:27;15.43;;;7.00;;
2404;SDS011;1213;43.206;27.922;2023-10-19T00:57:02;16.50;;;6.50;;
2404;SDS011;1213;43.206;27.922;2023-10-19T00:59:31;9.73;;;6.67;;
2404;SDS011;1213;43.206;27.922;2023-10-19T01:02:00;6.77;;;5.00;;
2404;SDS011;1213;43.206;27.922;2023-10-19T01:04:44;8.60;;;6.30;;
2404;SDS011;1213;43.206;27.922;2023-10-19T01:07:10;13.40;;;7.60;;
2404;SDS011;1213;43.206;27.922;2023-10-19T01:09:59;11.47;;;7.30;;
2404;SDS011;1213;43.206;27.922;2023-10-19T01:12:24;14.47;;;8.33;;
2404;SDS011;1213;43.206;27.922;2023-10-19T01:17:31;14.73;;;6.70;;
2404;SDS011;1213;43.206;27.922;2023-10-19T01:19:56;13.93;;;6.73;;
2404;SDS011;1213;43.206;27.922;2023-10-19T01:22:23;13.87;;;6.13;;
2404;SDS011;1213;43.206;27.922;2023-10-19T01:24:51;17.57;;;7.50;;
2404;SDS011;1213;43.206;27.922;2023-10-19T01:27:18;14.63;;;7.60;;
2404;SDS011;1213;43.206;27.922;2023-10-19T01:29:43;12.20;;;7.23;;
2404;SDS011;1213;43.206;27.922;2023-10-19T01:32:09;13.30;;;6.83;;
2404;SDS011;1213;43.206;27.922;2023-10-19T01:34:35;11.23;;;6.70;;
2404;SDS011;1213;43.206;27.922;2023-10-19T01:37:02;10.57;;;7.07;;
2404;SDS011;1213;43.206;27.922;2023-10-19T01:39:31;14.87;;;7.33;;
2404;SDS011;1213;43.206;27.922;2023-10-19T01:41:56;23.40;;;8.70;;
2404;SDS011;1213;43.206;27.922;2023-10-19T01:44:22;13.37;;;9.33;;
2404;SDS011;1213;43.206;27.922;2023-10-19T01:46:49;19.23;;;9.13;;
2404;SDS011;1213;43.206;27.922;2023-10-19T01:49:15;15.23;;;9.20;;
2404;SDS011;1213;43.206;27.922;2023-10-19T01:51:51;17.37;;;11.43;;
2404;SDS011;1213;43.206;27.922;2023-10-19T01:54:16;25.23;;;14.50;;
2404;SDS011;1213;43.206;27.922;2023-10-19T01:56:44;20.37;;;11.13;;
2404;SDS011;1213;43.206;27.922;2023-10-19T01:59:10;20.10;;;11.13;;
2404;SDS011;1213;43.206;27.922;2023-10-19T02:01:35;17.27;;;10.67;;
2404;SDS011;1213;43.206;27.922;2023-10-19T02:04:05;21.90;;;11.50;;
2404;SDS011;1213;43.206;27.922;2023-10-19T02:06:31;14.33;;;11.43;;
2404;SDS011;1213;43.206;27.922;2023-10-19T02:09:00;21.47;;;12.87;;
2404;SDS011;1213;43.206;27.922;2023-10-19T02:11:26;20.70;;;12.73;;
2404;SDS011;1213;43.206;27.922;2023-10-19T02:13:55;20.23;;;12.80;;
2404;SDS011;1213;43.206;27.922;2023-10-19T02:16:25;32.23;;;13.80;;
2404;SDS011;1213;43.206;27.922;2023-10-19T02:18:50;27.03;;;14.23;;
2404;SDS011;1213;43.206;27.922;2023-10-19T02:21:16;23.60;;;13.67;;
2404;SDS011;1213;43.206;27.922;2023-10-19T02:23:47;20.20;;;11.50;;
2404;SDS011;1213;43.206;27.922;2023-10-19T02:26:16;18.60;;;10.93;;
2404;SDS011;1213;43.206;27.922;2023-10-19T02:28:41;16.73;;;9.40;;
2404;SDS011;1213;43.206;27.922;2023-10-19T02:31:09;14.37;;;8.60;;
2404;SDS011;1213;43.206;27.922;2023-10-19T02:33:49;16.33;;;9.50;;
2404;SDS011;1213;43.206;27.922;2023-10-19T02:36:24;11.87;;;8.67;;
2404;SDS011;1213;43.206;27.922;2023-10-19T02:38:53;16.83;;;8.87;;
2404;SDS011;1213;43.206;27.922;2023-10-19T02:41:18;16.90;;;9.20;;
2404;SDS011;1213;43.206;27.922;2023-10-19T02:43:47;15.60;;;8.53;;
2404;SDS011;1213;43.206;27.922;2023-10-19T02:46:16;10.23;;;8.07;;
2404;SDS011;1213;43.206;27.922;2023-10-19T02:48:44;11.57;;;7.90;;
2404;SDS011;1213;43.206;27.922;2023-10-19T02:51:11;11.20;;;7.83;;
2404;SDS011;1213;43.206;27.922;2023-10-19T02:53:37;10.13;;;6.10;;
2404;SDS011;1213;43.206;27.922;2023-10-19T02:56:09;9.37;;;6.17;;
2404;SDS011;1213;43.206;27.922;2023-10-19T02:58:35;10.37;;;7.93;;
2404;SDS011;1213;43.206;27.922;2023-10-19T03:01:01;13.87;;;7.93;;
2404;SDS011;1213;43.206;27.922;2023-10-19T03:03:26;14.33;;;7.60;;
2404;SDS011;1213;43.206;27.922;2023-10-19T03:05:51;11.10;;;6.03;;
2404;SDS011;1213;43.206;27.922;2023-10-19T03:08:17;8.97;;;6.67;;
2404;SDS011;1213;43.206;27.922;2023-10-19T03:10:44;10.73;;;6.53;;
2404;SDS011;1213;43.206;27.922;2023-10-19T03:13:09;11.87;;;7.70;;
2404;SDS011;1213;43.206;27.922;2023-10-19T03:15:35;15.60;;;8.53;;
2404;SDS011;1213;43.206;27.922;2023-10-19T03:18:01;12.23;;;7.50;;
2404;SDS011;1213;43.206;27.922;2023-10-19T03:20:27;17.50;;;9.20;;
2404;SDS011;1213;43.206;27.922;2023-10-19T03:22:52;17.70;;;7.57;;
2404;SDS011;1213;43.206;27.922;2023-10-19T03:25:18;15.50;;;8.87;;
2404;SDS011;1213;43.206;27.922;2023-10-19T03:28:02;12.90;;;8.73;;
2404;SDS011;1213;43.206;27.922;2023-10-19T03:30:36;16.57;;;9.80;;
2404;SDS011;1213;43.206;27.922;2023-10-19T03:33:04;22.90;;;11.67;;
2404;SDS011;1213;43.206;27.922;2023-10-19T03:35:29;19.50;;;12.80;;
2404;SDS011;1213;43.206;27.922;2023-10-19T03:37:55;23.40;;;15.57;;
2404;SDS011;1213;43.206;27.922;2023-10-19T03:40:23;30.10;;;17.20;;
2404;SDS011;1213;43.206;27.922;2023-10-19T03:42:57;30.23;;;16.40;;
2404;SDS011;1213;43.206;27.922;2023-10-19T03:45:23;26.97;;;15.87;;
2404;SDS011;1213;43.206;27.922;2023-10-19T03:47:50;31.67;;;16.30;;
2404;SDS011;1213;43.206;27.922;2023-10-19T03:50:18;24.37;;;15.80;;
2404;SDS011;1213;43.206;27.922;2023-10-19T03:52:46;25.00;;;17.07;;
2404;SDS011;1213;43.206;27.922;2023-10-19T03:55:12;36.73;;;19.30;;
2404;SDS011;1213;43.206;27.922;2023-10-19T03:57:41;39.33;;;22.90;;
2404;SDS011;1213;43.206;27.922;2023-10-19T04:00:11;33.20;;;21.23;;
2404;SDS011;1213;43.206;27.922;2023-10-19T04:02:41;40.13;;;21.93;;
2404;SDS011;1213;43.206;27.922;2023-10-19T04:05:07;37.10;;;22.13;;
2404;SDS011;1213;43.206;27.922;2023-10-19T04:07:35;42.40;;;22.80;;
2404;SDS011;1213;43.206;27.922;2023-10-19T04:10:00;34.93;;;18.57;;
2404;SDS011;1213;43.206;27.922;2023-10-19T04:12:31;44.43;;;22.57;;
2404;SDS011;1213;43.206;27.922;2023-10-19T04:14:58;30.63;;;17.93;;
2404;SDS011;1213;43.206;27.922;2023-10-19T04:17:29;24.80;;;15.07;;
2404;SDS011;1213;43.206;27.922;2023-10-19T04:19:55;35.30;;;20.87;;
2404;SDS011;1213;43.206;27.922;2023-10-19T04:22:20;28.00;;;18.33;;
2404;SDS011;1213;43.206;27.922;2023-10-19T04:24:50;34.70;;;18.90;;
2404;SDS011;1213;43.206;27.922;2023-10-19T04:27:15;23.73;;;15.03;;
2404;SDS011;1213;43.206;27.922;2023-10-19T04:29:41;25.87;;;15.40;;
2404;SDS011;1213;43.206;27.922;2023-10-19T04:32:08;30.47;;;17.70;;
2404;SDS011;1213;43.206;27.922;2023-10-19T04:34:34;30.50;;;15.43;;
2404;SDS011;1213;43.206;27.922;2023-10-19T04:37:01;33.13;;;17.77;;
2404;SDS011;1213;43.206;27.922;2023-10-19T04:39:28;26.13;;;16.77;;
2404;SDS011;1213;43.206;27.922;2023-10-19T04:41:55;18.93;;;12.63;;
2404;SDS011;1213;43.206;27.922;2023-10-19T04:44:21;27.23;;;14.17;;
2404;SDS011;1213;43.206;27.922;2023-10-19T04:46:46;21.67;;;13.67;;
2404;SDS011;1213;43.206;27.922;2023-10-19T04:49:11;15.90;;;8.97;;
2404;SDS011;1213;43.206;27.922;2023-10-19T04:51:36;20.60;;;9.17;;
2404;SDS011;1213;43.206;27.922;2023-10-19T04:54:04;20.07;;;9.57;;
2404;SDS011;1213;43.206;27.922;2023-10-19T04:56:29;22.47;;;12.33;;
2404;SDS011;1213;43.206;27.922;2023-10-19T04:58:54;19.90;;;13.90;;
2404;SDS011;1213;43.206;27.922;2023-10-19T05:01:20;21.53;;;12.87;;
2404;SDS011;1213;43.206;27.922;2023-10-19T05:03:45;5.60;;;3.67;;
2404;SDS011;1213;43.206;27.922;2023-10-19T05:06:10;21.33;;;11.40;;
2404;SDS011;1213;43.206;27.922;2023-10-19T05:08:36;23.50;;;14.50;;
2404;SDS011;1213;43.206;27.922;2023-10-19T05:11:02;23.90;;;13.43;;
2404;SDS011;1213;43.206;27.922;2023-10-19T05:13:31;15.17;;;9.47;;
2404;SDS011;1213;43.206;27.922;2023-10-19T05:15:56;11.60;;;10.40;;
2404;SDS011;1213;43.206;27.922;2023-10-19T05:18:24;19.63;;;12.00;;
2404;SDS011;1213;43.206;27.922;2023-10-19T05:20:49;28.17;;;14.40;;
2404;SDS011;1213;43.206;27.922;2023-10-19T05:23:20;26.53;;;13.77;;
2404;SDS011;1213;43.206;27.922;2023-10-19T05:25:45;19.20;;;14.73;;
2404;SDS011;1213;43.206;27.922;2023-10-19T05:28:10;30.90;;;16.10;;
2404;SDS011;1213;43.206;27.922;2023-10-19T05:30:36;16.70;;;11.33;;
2404;SDS011;1213;43.206;27.922;2023-10-19T05:33:01;24.47;;;14.60;;
2404;SDS011;1213;43.206;27.922;2023-10-19T05:35:27;20.83;;;12.50;;
2404;SDS011;1213;43.206;27.922;2023-10-19T05:37:53;28.53;;;15.17;;
2404;SDS011;1213;43.206;27.922;2023-10-19T05:40:20;20.30;;;13.60;;
2404;SDS011;1213;43.206;27.922;2023-10-19T05:42:47;20.20;;;12.20;;
2404;SDS011;1213;43.206;27.922;2023-10-19T05:45:13;26.80;;;14.23;;
2404;SDS011;1213;43.206;27.922;2023-10-19T05:47:38;21.93;;;13.73;;
2404;SDS011;1213;43.206;27.922;2023-10-19T05:50:04;27.03;;;14.00;;
2404;SDS011;1213;43.206;27.922;2023-10-19T05:52:29;35.57;;;15.97;;
2404;SDS011;1213;43.206;27.922;2023-10-19T05:54:55;29.80;;;16.20;;
2404;SDS011;1213;43.206;27.922;2023-10-19T05:57:20;35.47;;;17.00;;
2404;SDS011;1213;43.206;27.922;2023-10-19T05:59:47;23.80;;;15.53;;
2404;SDS011;1213;43.206;27.922;2023-10-19T06:02:13;33.07;;;17.37;;
2404;SDS011;1213;43.206;27.922;2023-10-19T06:04:38;26.33;;;16.90;;
2404;SDS011;1213;43.206;27.922;2023-10-19T06:07:04;35.77;;;17.30;;
2404;SDS011;1213;43.206;27.922;2023-10-19T06:09:32;29.37;;;17.13;;
2404;SDS011;1213;43.206;27.922;2023-10-19T06:11:57;24.57;;;17.77;;
2404;SDS011;1213;43.206;27.922;2023-10-19T06:14:23;27.77;;;16.80;;
2404;SDS011;1213;43.206;27.922;2023-10-19T06:16:48;28.17;;;18.13;;
2404;SDS011;1213;43.206;27.922;2023-10-19T06:19:13;26.77;;;16.33;;
2404;SDS011;1213;43.206;27.922;2023-10-19T06:21:38;27.07;;;16.97;;
2404;SDS011;1213;43.206;27.922;2023-10-19T06:24:05;28.07;;;17.10;;
2404;SDS011;1213;43.206;27.922;2023-10-19T06:26:41;30.07;;;16.20;;
2404;SDS011;1213;43.206;27.922;2023-10-19T06:29:07;33.90;;;17.27;;
2404;SDS011;1213;43.206;27.922;2023-10-19T06:31:33;38.27;;;17.13;;
2404;SDS011;1213;43.206;27.922;2023-10-19T06:33:59;21.37;;;15.07;;
2404;SDS011;1213;43.206;27.922;2023-10-19T06:36:25;28.20;;;14.73;;
2404;SDS011;1213;43.206;27.922;2023-10-19T06:38:51;30.03;;;16.63;;
2404;SDS011;1213;43.206;27.922;2023-10-19T06:41:16;33.23;;;17.27;;
2404;SDS011;1213;43.206;27.922;2023-10-19T06:43:43;19.70;;;12.27;;
2404;SDS011;1213;43.206;27.922;2023-10-19T06:46:09;29.60;;;15.73;;
2404;SDS011;1213;43.206;27.922;2023-10-19T06:48:36;19.67;;;14.17;;
2404;SDS011;1213;43.206;27.922;2023-10-19T06:51:02;19.03;;;10.80;;
2404;SDS011;1213;43.206;27.922;2023-10-19T06:53:27;21.80;;;12.07;;
2404;SDS011;1213;43.206;27.922;2023-10-19T06:55:53;20.77;;;12.30;;
2404;SDS011;1213;43.206;27.922;2023-10-19T06:58:19;20.37;;;13.17;;
2404;SDS011;1213;43.206;27.922;2023-10-19T07:00:45;26.97;;;12.80;;
2404;SDS011;1213;43.206;27.922;2023-10-19T07:03:10;18.57;;;11.33;;
2404;SDS011;1213;43.206;27.922;2023-10-19T07:05:36;11.90;;;7.63;;
2404;SDS011;1213;43.206;27.922;2023-10-19T07:08:01;14.30;;;8.27;;
2404;SDS011;1213;43.206;27.922;2023-10-19T07:10:28;6.10;;;3.90;;
2404;SDS011;1213;43.206;27.922;2023-10-19T07:12:54;5.37;;;4.77;;
2404;SDS011;1213;43.206;27.922;2023-10-19T07:15:20;10.53;;;4.60;;
2404;SDS011;1213;43.206;27.922;2023-10-19T07:17:47;5.90;;;4.83;;
2404;SDS011;1213;43.206;27.922;2023-10-19T07:20:13;7.00;;;5.37;;
2404;SDS011;1213;43.206;27.922;2023-10-19T07:22:57;8.00;;;4.67;;
2404;SDS011;1213;43.206;27.922;2023-10-19T07:25:28;4.60;;;3.73;;
2404;SDS011;1213;43.206;27.922;2023-10-19T07:27:54;3.90;;;3.00;;
2404;SDS011;1213;43.206;27.922;2023-10-19T07:30:20;2.77;;;2.57;;
2404;SDS011;1213;43.206;27.922;2023-10-19T07:32:49;3.87;;;2.80;;
2404;SDS011;1213;43.206;27.922;2023-10-19T07:35:23;11.60;;;4.27;;
2404;SDS011;1213;43.206;27.922;2023-10-19T07:37:51;3.67;;;2.83;;
2404;SDS011;1213;43.206;27.922;2023-10-19T07:40:16;10.23;;;3.30;;
2404;SDS011;1213;43.206;27.922;2023-10-19T07:42:43;5.13;;;2.40;;
2404;SDS011;1213;43.206;27.922;2023-10-19T07:45:08;4.40;;;2.57;;
2404;SDS011;1213;43.206;27.922;2023-10-19T07:47:39;4.80;;;2.77;;
2404;SDS011;1213;43.206;27.922;2023-10-19T07:50:06;3.77;;;3.33;;
2404;SDS011;1213;43.206;27.922;2023-10-19T07:52:32;5.37;;;2.23;;
2404;SDS011;1213;43.206;27.922;2023-10-19T07:55:00;7.60;;;2.17;;
2404;SDS011;1213;43.206;27.922;2023-10-19T07:57:27;19.30;;;9.07;;
2404;SDS011;1213;43.206;27.922;2023-10-19T07:59:54;5.50;;;3.07;;
2404;SDS011;1213;43.206;27.922;2023-10-19T08:02:21;5.67;;;3.33;;
2404;SDS011;1213;43.206;27.922;2023-10-19T08:04:49;9.20;;;2.43;;
2404;SDS011;1213;43.206;27.922;2023-10-19T08:07:15;4.37;;;2.83;;
2404;SDS011;1213;43.206;27.922;2023-10-19T08:09:42;15.67;;;4.27;;
2404;SDS011;1213;43.206;27.922;2023-10-19T08:12:07;9.40;;;3.30;;
2404;SDS011;1213;43.206;27.922;2023-10-19T08:14:34;9.13;;;3.40;;
2404;SDS011;1213;43.206;27.922;2023-10-19T08:16:59;2.73;;;2.20;;
2404;SDS011;1213;43.206;27.922;2023-10-19T08:19:25;9.90;;;1.83;;
2404;SDS011;1213;43.206;27.922;2023-10-19T08:21:52;3.17;;;1.33;;
2404;SDS011;1213;43.206;27.922;2023-10-19T08:24:18;7.17;;;2.40;;
2404;SDS011;1213;43.206;27.922;2023-10-19T08:26:44;5.03;;;2.30;;
2404;SDS011;1213;43.206;27.922;2023-10-19T08:29:11;10.97;;;3.53;;
2404;SDS011;1213;43.206;27.922;2023-10-19T08:31:40;4.93;;;3.03;;
2404;SDS011;1213;43.206;27.922;2023-10-19T08:34:05;2.07;;;1.73;;
2404;SDS011;1213;43.206;27.922;2023-10-19T08:36:31;4.77;;;2.57;;
2404;SDS011;1213;43.206;27.922;2023-10-19T08:38:56;7.30;;;2.23;;
2404;SDS011;1213;43.206;27.922;2023-10-19T08:41:22;7.93;;;2.63;;
2404;SDS011;1213;43.206;27.922;2023-10-19T08:43:48;2.30;;;2.13;;
2404;SDS011;1213;43.206;27.922;2023-10-19T08:46:14;3.20;;;2.20;;
2404;SDS011;1213;43.206;27.922;2023-10-19T08:48:39;6.47;;;1.87;;
2404;SDS011;1213;43.206;27.922;2023-10-19T08:51:09;3.40;;;1.30;;
2404;SDS011;1213;43.206;27.922;2023-10-19T08:53:38;1.83;;;1.37;;
2404;SDS011;1213;43.206;27.922;2023-10-19T08:56:06;2.30;;;1.63;;
2404;SDS011;1213;43.206;27.922;2023-10-19T08:58:32;4.80;;;2.60;;
2404;SDS011;1213;43.206;27.922;2023-10-19T09:00:57;3.63;;;1.60;;
2404;SDS011;1213;43.206;27.922;2023-10-19T09:03:23;2.77;;;1.43;;
2404;SDS011;1213;43.206;27.922;2023-10-19T09:05:49;5.90;;;2.30;;
2404;SDS011;1213;43.206;27.922;2023-10-19T09:08:18;3.40;;;1.37;;
2404;SDS011;1213;43.206;27.922;2023-10-19T09:10:45;5.10;;;1.70;;
2404;SDS011;1213;43.206;27.922;2023-10-19T09:13:13;4.47;;;2.20;;
2404;SDS011;1213;43.206;27.922;2023-10-19T09:15:41;3.37;;;1.60;;
2404;SDS011;1213;43.206;27.922;2023-10-19T09:18:16;6.73;;;1.90;;
2404;SDS011;1213;43.206;27.922;2023-10-19T09:20:43;6.30;;;1.87;;
2404;SDS011;1213;43.206;27.922;2023-10-19T09:23:22;4.23;;;1.27;;
2404;SDS011;1213;43.206;27.922;2023-10-19T09:25:50;3.33;;;1.40;;
2404;SDS011;1213;43.206;27.922;2023-10-19T09:28:18;4.57;;;2.77;;
2404;SDS011;1213;43.206;27.922;2023-10-19T09:30:43;2.50;;;2.10;;
2404;SDS011;1213;43.206;27.922;2023-10-19T09:33:09;2.17;;;1.30;;
2404;SDS011;1213;43.206;27.922;2023-10-19T09:35:34;7.50;;;2.60;;
2404;SDS011;1213;43.206;27.922;2023-10-19T09:38:02;9.73;;;5.67;;
2404;SDS011;1213;43.206;27.922;2023-10-19T09:40:29;2.60;;;2.10;;
2404;SDS011;1213;43.206;27.922;2023-10-19T09:42:56;4.80;;;2.03;;
2404;SDS011;1213;43.206;27.922;2023-10-19T09:45:22;4.80;;;1.90;;
2404;SDS011;1213;43.206;27.922;2023-10-19T09:47:50;13.37;;;3.20;;
2404;SDS011;1213;43.206;27.922;2023-10-19T09:50:16;4.50;;;1.80;;
2404;SDS011;1213;43.206;27.922;2023-10-19T09:52:42;6.90;;;1.70;;
2404;SDS011;1213;43.206;27.922;2023-10-19T09:57:35;6.67;;;2.00;;
2404;SDS011;1213;43.206;27.922;2023-10-19T10:00:03;4.70;;;1.90;;
2404;SDS011;1213;43.206;27.922;2023-10-19T10:02:43;19.57;;;3.83;;
2404;SDS011;1213;43.206;27.922;2023-10-19T10:08:28;2.53;;;1.57;;
2404;SDS011;1213;43.206;27.922;2023-10-19T10:10:50;10.53;;;2.70;;
2404;SDS011;1213;43.206;27.922;2023-10-19T10:15:56;3.83;;;1.73;;
2404;SDS011;1213;43.206;27.922;2023-10-19T10:18:25;7.23;;;2.00;;
2404;SDS011;1213;43.206;27.922;2023-10-19T10:23:44;6.63;;;2.13;;
2404;SDS011;1213;43.206;27.922;2023-10-19T10:26:11;4.43;;;1.50;;
2404;SDS011;1213;43.206;27.922;2023-10-19T10:28:36;2.30;;;1.30;;
2404;SDS011;1213;43.206;27.922;2023-10-19T10:31:07;4.33;;;1.60;;
2404;SDS011;1213;43.206;27.922;2023-10-19T10:33:46;3.20;;;0.90;;
2404;SDS011;1213;43.206;27.922;2023-10-19T10:36:15;5.23;;;2.10;;
2404;SDS011;1213;43.206;27.922;2023-10-19T10:38:42;3.53;;;1.50;;
2404;SDS011;1213;43.206;27.922;2023-10-19T10:41:08;3.40;;;2.07;;
2404;SDS011;1213;43.206;27.922;2023-10-19T10:43:48;4.70;;;1.70;;
2404;SDS011;1213;43.206;27.922;2023-10-19T10:46:14;4.30;;;1.00;;
2404;SDS011;1213;43.206;27.922;2023-10-19T10:48:43;4.37;;;1.93;;
2404;SDS011;1213;43.206;27.922;2023-10-19T10:51:15;8.33;;;2.10;;
2404;SDS011;1213;43.206;27.922;2023-10-19T10:53:41;5.53;;;3.23;;
2404;SDS011;1213;43.206;27.922;2023-10-19T10:56:06;4.00;;;2.10;;
2404;SDS011;1213;43.206;27.922;2023-10-19T10:58:31;2.23;;;1.60;;
2404;SDS011;1213;43.206;27.922;2023-10-19T11:00:57;5.23;;;1.87;;
2404;SDS011;1213;43.206;27.922;2023-10-19T11:03:22;2.10;;;1.60;;
2404;SDS011;1213;43.206;27.922;2023-10-19T11:05:49;4.13;;;1.53;;
2404;SDS011;1213;43.206;27.922;2023-10-19T11:08:15;4.20;;;2.10;;
2404;SDS011;1213;43.206;27.922;2023-10-19T11:10:46;2.30;;;1.90;;
2404;SDS011;1213;43.206;27.922;2023-10-19T11:13:13;3.80;;;2.80;;
2404;SDS011;1213;43.206;27.922;2023-10-19T11:15:39;8.10;;;5.00;;
2404;SDS011;1213;43.206;27.922;2023-10-19T11:18:05;3.43;;;1.77;;
2404;SDS011;1213;43.206;27.922;2023-10-19T11:20:32;2.57;;;1.60;;
2404;SDS011;1213;43.206;27.922;2023-10-19T11:22:57;3.03;;;1.27;;
2404;SDS011;1213;43.206;27.922;2023-10-19T11:25:28;3.40;;;2.13;;
2404;SDS011;1213;43.206;27.922;2023-10-19T11:27:55;4.03;;;2.20;;
2404;SDS011;1213;43.206;27.922;2023-10-19T11:30:38;3.30;;;1.60;;
2404;SDS011;1213;43.206;27.922;2023-10-19T11:33:03;3.10;;;1.90;;
2404;SDS011;1213;43.206;27.922;2023-10-19T11:35:29;2.83;;;1.97;;
2404;SDS011;1213;43.206;27.922;2023-10-19T11:37:56;7.33;;;2.13;;
2404;SDS011;1213;43.206;27.922;2023-10-19T11:40:22;2.70;;;1.77;;
2404;SDS011;1213;43.206;27.922;2023-10-19T11:42:48;11.53;;;2.10;;
2404;SDS011;1213;43.206;27.922;2023-10-19T11:45:13;3.20;;;1.27;;
2404;SDS011;1213;43.206;27.922;2023-10-19T11:47:39;2.90;;;1.60;;
2404;SDS011;1213;43.206;27.922;2023-10-19T11:50:04;2.60;;;1.73;;
2404;SDS011;1213;43.206;27.922;2023-10-19T11:52:30;4.27;;;1.53;;
2404;SDS011;1213;43.206;27.922;2023-10-19T11:54:55;6.30;;;1.63;;
2404;SDS011;1213;43.206;27.922;2023-10-19T11:57:21;2.73;;;1.43;;
2404;SDS011;1213;43.206;27.922;2023-10-19T11:59:46;5.73;;;2.30;;
2404;SDS011;1213;43.206;27.922;2023-10-19T12:02:17;2.07;;;1.10;;
2404;SDS011;1213;43.206;27.922;2023-10-19T12:04:44;3.83;;;2.37;;
2404;SDS011;1213;43.206;27.922;2023-10-19T12:07:10;3.53;;;1.80;;
2404;SDS011;1213;43.206;27.922;2023-10-19T12:09:35;6.83;;;2.10;;
2404;SDS011;1213;43.206;27.922;2023-10-19T12:12:01;2.30;;;2.10;;
2404;SDS011;1213;43.206;27.922;2023-10-19T12:14:28;2.07;;;1.30;;
2404;SDS011;1213;43.206;27.922;2023-10-19T12:16:53;3.33;;;1.77;;
2404;SDS011;1213;43.206;27.922;2023-10-19T12:19:19;8.83;;;1.93;;
2404;SDS011;1213;43.206;27.922;2023-10-19T12:21:44;3.83;;;1.23;;
2404;SDS011;1213;43.206;27.922;2023-10-19T12:24:10;3.03;;;1.30;;
2404;SDS011;1213;43.206;27.922;2023-10-19T12:26:35;4.40;;;1.60;;
2404;SDS011;1213;43.206;27.922;2023-10-19T12:29:00;2.70;;;1.60;;
2404;SDS011;1213;43.206;27.922;2023-10-19T12:31:26;3.63;;;1.20;;
2404;SDS011;1213;43.206;27.922;2023-10-19T12:33:51;3.83;;;1.37;;
2404;SDS011;1213;43.206;27.922;2023-10-19T12:36:17;1.87;;;1.30;;
2404;SDS011;1213;43.206;27.922;2023-10-19T12:38:52;2.70;;;1.47;;
2404;SDS011;1213;43.206;27.922;2023-10-19T12:41:20;3.27;;;1.53;;
2404;SDS011;1213;43.206;27.922;2023-10-19T12:43:46;2.97;;;1.27;;
2404;SDS011;1213;43.206;27.922;2023-10-19T12:46:12;3.90;;;1.53;;
2404;SDS011;1213;43.206;27.922;2023-10-19T12:48:38;2.80;;;1.53;;
2404;SDS011;1213;43.206;27.922;2023-10-19T12:51:04;1.90;;;1.10;;
2404;SDS011;1213;43.206;27.922;2023-10-19T12:53:31;2.17;;;1.70;;
2404;SDS011;1213;43.206;27.922;2023-10-19T12:55:58;4.20;;;1.27;;
2404;SDS011;1213;43.206;27.922;2023-10-19T12:58:23;1.87;;;1.60;;
2404;SDS011;1213;43.206;27.922;2023-10-19T13:00:48;1.90;;;1.37;;
2404;SDS011;1213;43.206;27.922;2023-10-19T13:03:14;2.63;;;1.67;;
2404;SDS011;1213;43.206;27.922;2023-10-19T13:05:40;3.03;;;1.30;;
2404;SDS011;1213;43.206;27.922;2023-10-19T13:08:09;5.43;;;1.73;;
2404;SDS011;1213;43.206;27.922;2023-10-19T13:10:35;2.97;;;1.17;;
2404;SDS011;1213;43.206;27.922;2023-10-19T13:13:02;3.23;;;1.23;;
2404;SDS011;1213;43.206;27.922;2023-10-19T13:15:31;3.23;;;1.70;;
2404;SDS011;1213;43.206;27.922;2023-10-19T13:17:57;1.57;;;0.93;;
2404;SDS011;1213;43.206;27.922;2023-10-19T13:20:25;2.40;;;1.23;;
2404;SDS011;1213;43.206;27.922;2023-10-19T13:22:51;1.60;;;1.10;;
2404;SDS011;1213;43.206;27.922;2023-10-19T13:25:17;1.50;;;0.93;;
2404;SDS011;1213;43.206;27.922;2023-10-19T13:27:43;3.00;;;1.63;;
2404;SDS011;1213;43.206;27.922;2023-10-19T13:30:09;3.40;;;1.40;;
2404;SDS011;1213;43.206;27.922;2023-10-19T13:32:39;2.37;;;1.57;;
2404;SDS011;1213;43.206;27.922;2023-10-19T13:35:05;2.30;;;1.30;;
2404;SDS011;1213;43.206;27.922;2023-10-19T13:37:30;3.03;;;1.27;;
2404;SDS011;1213;43.206;27.922;2023-10-19T13:39:56;2.23;;;0.90;;
2404;SDS011;1213;43.206;27.922;2023-10-19T13:42:22;3.13;;;1.30;;
2404;SDS011;1213;43.206;27.922;2023-10-19T13:44:47;3.87;;;1.30;;
2404;SDS011;1213;43.206;27.922;2023-10-19T13:47:12;1.20;;;1.10;;
2404;SDS011;1213;43.206;27.922;2023-10-19T13:49:38;2.43;;;0.90;;
2404;SDS011;1213;43.206;27.922;2023-10-19T13:52:03;4.30;;;1.80;;
2404;SDS011;1213;43.206;27.922;2023-10-19T13:54:33;10.43;;;3.70;;
2404;SDS011;1213;43.206;27.922;2023-10-19T13:56:59;7.00;;;5.27;;
2404;SDS011;1213;43.206;27.922;2023-10-19T13:59:24;4.23;;;1.60;;
2404;SDS011;1213;43.206;27.922;2023-10-19T14:01:50;7.27;;;1.40;;
2404;SDS011;1213;43.206;27.922;2023-10-19T14:04:15;1.43;;;1.20;;
2404;SDS011;1213;43.206;27.922;2023-10-19T14:06:41;2.33;;;0.97;;
2404;SDS011;1213;43.206;27.922;2023-10-19T14:09:07;4.23;;;0.97;;
2404;SDS011;1213;43.206;27.922;2023-10-19T14:11:37;2.13;;;1.07;;
2404;SDS011;1213;43.206;27.922;2023-10-19T14:14:02;5.73;;;1.50;;
2404;SDS011;1213;43.206;27.922;2023-10-19T14:16:28;5.13;;;3.33;;
2404;SDS011;1213;43.206;27.922;2023-10-19T14:18:53;5.10;;;1.50;;
2404;SDS011;1213;43.206;27.922;2023-10-19T14:21:18;2.17;;;1.03;;
2404;SDS011;1213;43.206;27.922;2023-10-19T14:23:45;2.00;;;1.20;;
2404;SDS011;1213;43.206;27.922;2023-10-19T14:26:10;4.00;;;1.30;;
2404;SDS011;1213;43.206;27.922;2023-10-19T14:28:36;1.63;;;0.87;;
2404;SDS011;1213;43.206;27.922;2023-10-19T14:31:02;4.00;;;1.60;;
2404;SDS011;1213;43.206;27.922;2023-10-19T14:33:29;2.50;;;1.73;;
2404;SDS011;1213;43.206;27.922;2023-10-19T14:35:54;7.53;;;2.17;;
2404;SDS011;1213;43.206;27.922;2023-10-19T14:38:20;3.67;;;1.60;;
2404;SDS011;1213;43.206;27.922;2023-10-19T14:40:45;3.13;;;1.33;;
2404;SDS011;1213;43.206;27.922;2023-10-19T14:43:13;12.33;;;4.93;;
2404;SDS011;1213;43.206;27.922;2023-10-19T14:45:39;10.93;;;7.70;;
2404;SDS011;1213;43.206;27.922;2023-10-19T14:48:05;3.90;;;1.77;;
2404;SDS011;1213;43.206;27.922;2023-10-19T14:50:33;2.97;;;1.40;;
2404;SDS011;1213;43.206;27.922;2023-10-19T14:52:59;5.13;;;1.87;;
2404;SDS011;1213;43.206;27.922;2023-10-19T14:55:25;3.07;;;1.40;;
2404;SDS011;1213;43.206;27.922;2023-10-19T14:57:51;1.93;;;1.37;;
2404;SDS011;1213;43.206;27.922;2023-10-19T15:00:20;8.57;;;1.63;;
2404;SDS011;1213;43.206;27.922;2023-10-19T15:03:11;4.23;;;1.40;;
2404;SDS011;1213;43.206;27.922;2023-10-19T15:05:38;3.40;;;1.30;;